Latest Weather Observations for Geelong Racecourse

IDV60801

Issued at 11:52 am EDT Monday 26 October 2020 (issued every 10 minutes, with the page automatically refreshed every 10 minutes)

About weather observations | Map of weather stations | Latest weather observations for VIC | Other Formats
Station Details ID: 087184 Name: GEELONG RACECOURSE Lat: -38.17 Lon: 144.38 Height: 12.9 m
Data from the previous 72 hours. | See also: Recent months at Geelong Racecourse
Date/Time
EDT
Temp
°C
App
Temp
°C
Dew
Point
°C
Rel
Hum
%
Delta-T
°C
Wind Press
QNH
hPa
Press
MSL
hPa
Rain since
9am
mm
Dir  Spd
km/h
Gust
km/h
Spd
kts
Gust
kts
26/11:44am 14.9 8.5 5.1 52 4.6 SE 28 48 15 26 1025.5 1025.5 0.0
26/11:30am 14.5 9.3 5.6 55 4.2 ESE 22 35 12 19 1025.6 1025.6 0.0
26/11:00am 14.8 9.6 5.6 54 4.3 SE 22 39 12 21 1025.9 1025.9 0.0
26/10:30am 14.0 8.7 4.9 54 4.2 ESE 22 37 12 20 1026.1 1026.1 0.0
26/10:00am 14.1 8.3 4.4 52 4.4 ESE 24 37 13 20 1026.1 1026.1 0.0
26/09:30am 13.6 8.7 5.3 57 3.9 ESE 20 37 11 20 1026.1 1026.1 0.0
26/09:00am 13.2 8.0 5.4 59 3.6 ESE 22 39 12 21 1026.2 1026.2 0.2
26/08:30am 12.4 8.6 5.8 64 3.1 SE 15 26 8 14 1026.2 1026.2 0.2
26/08:00am 12.3 7.7 5.5 63 3.1 SE 19 30 10 16 1025.9 1025.9 0.2
26/07:30am 11.6 6.9 5.3 65 2.9 SE 19 26 10 14 1025.9 1025.9 0.2
26/07:00am 10.6 6.3 5.4 70 2.4 SE 17 26 9 14 1025.5 1025.5 0.2
26/06:30am 10.5 5.9 5.5 71 2.3 SE 19 28 10 15 1025.3 1025.3 0.2
26/06:00am 10.2 6.7 5.4 72 2.2 SE 13 22 7 12 1025.1 1025.1 0.2
26/05:30am 10.4 7.0 5.8 73 2.1 SE 13 28 7 15 1025.1 1025.1 0.2
26/05:00am 10.6 6.8 6.0 73 2.1 SE 15 22 8 12 1024.9 1024.9 0.2
26/04:30am 10.9 7.2 6.3 73 2.2 SE 15 26 8 14 1024.8 1024.8 0.2
26/04:00am 10.7 7.3 6.1 73 2.1 SE 13 20 7 11 1024.6 1024.6 0.2
26/03:30am 10.7 7.0 6.1 73 2.1 SE 15 32 8 17 1024.8 1024.8 0.2
26/03:00am 10.8 7.0 5.8 71 2.3 SE 15 30 8 16 1024.9 1024.9 0.2
26/02:30am 10.8 7.0 5.8 71 2.3 SE 15 26 8 14 1025.0 1025.0 0.2
26/02:00am 10.7 6.0 5.9 72 2.2 SE 20 30 11 16 1025.0 1025.0 0.2
26/01:30am 10.6 6.4 5.6 71 2.3 SE 17 24 9 13 1025.2 1025.2 0.2
26/01:00am 10.4 6.8 5.2 70 2.3 SE 13 20 7 11 1025.4 1025.4 0.2
26/12:30am 10.9 6.5 5.0 67 2.7 SE 17 28 9 15 1025.5 1025.5 0.2
26/12:00am 11.0 7.0 5.1 67 2.7 ESE 15 24 8 13 1025.5 1025.5 0.2
 
Date/Time
EDT
Temp
°C
App
Temp
°C
Dew
Point
°C
Rel
Hum
%
Delta-T
°C
Wind Press
QNH
hPa
Press
MSL
hPa
Rain since
9am
mm
Dir  Spd
km/h
Gust
km/h
Spd
kts
Gust
kts
25/11:30pm 11.0 7.4 5.1 67 2.7 ESE 13 26 7 14 1025.7 1025.7 0.2
25/11:00pm 10.8 7.7 5.6 70 2.4 SE 11 20 6 11 1025.5 1025.5 0.2
25/10:30pm 11.0 7.6 6.0 71 2.3 ESE 13 24 7 13 1025.6 1025.6 0.2
25/10:00pm 11.0 8.0 6.0 71 2.3 SE 11 20 6 11 1025.5 1025.5 0.2
25/09:30pm 11.2 7.1 6.1 71 2.4 SE 17 32 9 17 1025.3 1025.3 0.2
25/09:00pm 11.4 7.5 7.1 75 2.0 SE 17 30 9 16 1024.9 1024.9 0.2
25/08:30pm 11.4 6.6 7.3 76 2.0 SE 22 37 12 20 1024.6 1024.6 0.2
25/08:00pm 11.6 6.8 7.3 75 2.1 SE 22 39 12 21 1024.2 1024.2 0.2
25/07:30pm 12.1 6.4 6.6 69 2.6 SE 26 39 14 21 1023.9 1023.9 0.2
25/07:03pm 12.2 6.1 6.5 68 2.7 SE 28 48 15 26 1023.6 1023.6 0.2
25/07:00pm 12.2 6.5 6.7 69 2.6 SE 26 39 14 21 1023.6 1023.6 0.2
25/06:30pm 12.1 6.7 6.4 68 2.7 SSE 24 41 13 22 1023.3 1023.3 0.2
25/06:00pm 12.1 6.7 6.2 67 2.8 SE 24 37 13 20 1023.1 1023.1 0.2
25/05:30pm 12.3 5.6 5.5 63 3.2 SSE 30 46 16 25 1022.9 1022.9 0.2
25/05:00pm 12.6 5.7 4.8 59 3.6 SSE 30 46 16 25 1022.7 1022.7 0.2
25/04:45pm 12.6 5.7 4.8 59 3.6 SE 30 48 16 26 1022.7 1022.7 0.2
25/04:30pm 12.9 6.3 4.3 56 3.9 SSE 28 44 15 24 1022.5 1022.5 0.2
25/04:00pm 12.4 5.0 4.1 57 3.7 SE 32 44 17 24 1022.6 1022.6 0.2
25/03:30pm 12.1 5.9 6.2 67 2.8 SSE 28 43 15 23 1022.4 1022.4 0.2
25/03:00pm 12.9 5.9 6.0 63 3.2 SE 32 48 17 26 1022.4 1022.4 0.2
25/02:30pm 12.3 5.7 5.9 65 3.0 SE 30 43 16 23 1022.5 1022.5 0.2
25/02:00pm 12.4 6.8 5.3 62 3.3 SE 24 39 13 21 1022.4 1022.4 0.2
25/01:30pm 10.7 5.1 7.2 79 1.7 S 26 37 14 20 1022.5 1022.5 0.0
25/01:00pm 11.0 4.6 7.1 77 1.9 SSE 30 44 16 24 1022.6 1022.6 0.0
25/12:30pm 12.7 5.8 4.4 57 3.8 SSE 30 43 16 23 1022.5 1022.5 0.0
25/12:00pm 12.6 5.6 4.3 57 3.8 SSE 30 43 16 23 1022.4 1022.4 0.0
25/11:30am 12.1 5.4 3.9 57 3.7 S 28 39 15 21 1022.4 1022.4 0.0
25/11:00am 11.5 4.2 2.5 54 3.9 SSE 30 41 16 22 1022.4 1022.4 0.0
25/10:30am 10.8 3.2 2.6 57 3.5 S 32 48 17 26 1022.2 1022.2 0.0
25/10:09am 12.2 5.4 3.2 54 4.0 SSE 28 54 15 29 1022.1 1022.1 0.0
25/10:00am 11.5 3.6 2.3 53 3.9 S 33 50 18 27 1022.1 1022.1 0.0
25/09:30am 11.3 4.2 1.3 50 4.2 S 28 46 15 25 1021.8 1021.8 0.0
25/09:00am 11.3 4.3 2.1 53 3.9 SSE 28 43 15 23 1021.4 1021.4 0.4
25/08:30am 8.9 3.7 3.3 68 2.4 SSE 20 43 11 23 1021.1 1021.1 0.4
25/08:19am 9.8 2.5 2.6 61 3.1 SSE 30 48 16 26 1021.0 1021.0 0.4
25/08:00am 9.1 3.7 2.2 62 2.9 S 20 37 11 20 1020.6 1020.6 0.4
25/07:30am 8.6 2.8 2.2 64 2.7 S 22 39 12 21 1020.1 1020.1 0.4
25/07:00am 8.9 3.5 1.3 59 3.1 SSW 19 32 10 17 1019.5 1019.5 0.4
25/06:30am 9.1 3.5 1.3 58 3.2 S 20 33 11 18 1019.2 1019.2 0.4
25/06:00am 8.5 0.5 1.4 61 2.9 S 33 46 18 25 1018.6 1018.6 0.4
25/05:30am 8.9 1.0 -1.5 48 4.0 S 30 43 16 23 1018.1 1018.1 0.4
25/05:00am 9.2 2.8 1.1 57 3.3 S 24 37 13 20 1017.7 1017.7 0.4
25/04:30am 9.3 3.0 3.5 67 2.5 S 26 37 14 20 1017.3 1017.3 0.4
25/04:00am 9.2 2.8 3.4 67 2.5 S 26 37 14 20 1017.0 1017.0 0.4
25/03:30am 8.8 3.4 2.4 64 2.7 SSW 20 30 11 16 1016.6 1016.6 0.4
25/03:00am 9.3 3.6 2.6 63 2.8 SSW 22 30 12 16 1016.3 1016.3 0.4
25/02:30am 9.1 3.4 2.9 65 2.6 S 22 33 12 18 1016.2 1016.2 0.4
25/02:00am 9.5 3.0 2.8 63 2.9 SSW 26 33 14 18 1016.1 1016.1 0.4
25/01:30am 9.8 4.5 4.8 71 2.2 S 22 33 12 18 1016.1 1016.1 0.4
25/01:00am 9.0 3.3 4.8 75 1.9 S 24 37 13 20 1015.9 1015.9 0.4
25/12:43am 9.4 3.0 5.4 76 1.8 SSW 28 46 15 25 1015.9 1015.9 0.4
25/12:30am 9.8 4.7 6.0 77 1.8 S 22 32 12 17 1015.5 1015.5 0.4
25/12:00am 9.2 5.3 7.0 86 1.0 S 17 24 9 13 1015.2 1015.2 0.4
 
Date/Time
EDT
Temp
°C
App
Temp
°C
Dew
Point
°C
Rel
Hum
%
Delta-T
°C
Wind Press
QNH
hPa
Press
MSL
hPa
Rain since
9am
mm
Dir  Spd
km/h
Gust
km/h
Spd
kts
Gust
kts
24/11:30pm 9.3 6.6 7.4 88 0.9 SW 11 17 6 9 1015.1 1015.1 0.4
24/11:00pm 8.9 5.4 7.0 88 0.9 SW 15 20 8 11 1014.8 1014.8 0.4
24/10:30pm 8.7 6.5 6.2 84 1.1 WSW 7 13 4 7 1014.9 1014.9 0.4
24/10:00pm 9.2 7.1 6.6 84 1.2 SSW 7 9 4 5 1014.9 1014.9 0.2
24/09:30pm 9.7 6.2 5.5 75 1.9 SW 13 19 7 10 1014.7 1014.7 0.0
24/09:00pm 9.8 7.1 5.4 74 2.0 SW 9 15 5 8 1014.1 1014.1 0.0
24/08:30pm 9.8 7.1 5.4 74 2.0 WSW 9 11 5 6 1013.7 1013.7 0.0
24/08:00pm 10.3 7.1 5.3 71 2.3 WSW 11 17 6 9 1013.2 1013.2 0.0
24/07:30pm 10.8 6.9 5.3 69 2.5 WSW 15 22 8 12 1012.8 1012.8 0.0
24/07:00pm 10.7 6.0 5.9 72 2.2 SW 20 35 11 19 1012.6 1012.6 0.0
24/06:30pm 11.5 6.3 5.6 67 2.7 SSW 22 37 12 20 1012.1 1012.1 0.0
24/06:00pm 12.9 7.3 5.3 60 3.5 SW 24 35 13 19 1011.5 1011.5 0.0
24/05:30pm 13.5 6.4 3.8 52 4.4 SSW 30 41 16 22 1011.1 1011.1 0.0
24/05:00pm 13.5 6.4 6.6 63 3.3 SSW 33 46 18 25 1011.0 1011.0 0.0
24/04:30pm 14.3 7.4 6.4 59 3.8 SSW 32 46 17 25 1010.5 1010.5 0.0
24/04:00pm 13.8 5.9 6.4 61 3.6 SSW 37 48 20 26 1010.2 1010.2 0.0
24/03:30pm 12.9 5.4 6.3 64 3.1 SSW 35 46 19 25 1010.2 1010.2 0.0
24/03:00pm 13.3 6.9 8.4 72 2.4 SSW 32 41 17 22 1010.1 1010.1 0.0
24/02:30pm 13.5 8.1 8.1 70 2.7 SSW 26 37 14 20 1009.7 1009.7 0.0
24/02:00pm 13.2 8.0 10.4 83 1.5 SSW 28 37 15 20 1009.5 1009.5 0.0
24/01:30pm 13.2 6.9 7.6 69 2.7 SSW 30 44 16 24 1009.3 1009.3 0.0
24/01:00pm 13.9 8.5 7.9 67 3.0 SSW 26 39 14 21 1009.0 1009.0 0.0
24/12:35pm 12.3 6.6 8.4 77 1.9 SSW 28 50 15 27 1009.1 1009.1 0.0
24/12:30pm 13.1 8.5 9.7 80 1.7 SSW 24 35 13 19 1009.0 1009.0 0.0
24/12:00pm 12.8 7.2 10.2 84 1.3 SSW 30 39 16 21 1008.9 1008.9 0.0
24/11:30am 13.4 8.6 8.9 74 2.3 SSW 24 35 13 19 1008.5 1008.5 0.0
24/11:00am 14.5 9.7 8.9 69 2.8 SSW 24 33 13 18 1008.4 1008.4 0.0
24/10:30am 14.1 10.4 9.3 73 2.5 SSW 19 28 10 15 1008.2 1008.2 0.0
24/10:00am 12.6 10.0 9.4 81 1.6 SSW 13 22 7 12 1008.1 1008.1 0.0
24/09:30am 11.9 9.3 9.5 85 1.2 SW 13 19 7 10 1007.8 1007.8 0.0
24/09:00am 11.6 9.2 10.0 90 0.8 SW 13 20 7 11 1007.4 1007.4 20.8
24/08:30am 11.4 8.0 10.5 94 0.5 SW 19 26 10 14 1007.1 1007.1 20.8
24/08:00am 11.6 9.9 11.3 98 0.2 SW 11 19 6 10 1006.7 1006.7 20.8
24/07:30am 11.5 8.6 11.0 97 0.3 SSW 17 24 9 13 1006.3 1006.3 20.0
24/07:00am 11.6 8.7 11.1 97 0.3 SSW 17 24 9 13 1005.8 1005.8 18.6
24/06:30am 11.6 7.0 11.0 96 0.3 SSW 26 37 14 20 1005.2 1005.2 18.2
24/06:00am 11.8 7.2 11.2 96 0.3 SSW 26 39 14 21 1004.7 1004.7 17.6
24/05:30am 12.3 7.2 11.8 97 0.3 SSW 30 43 16 23 1004.3 1004.3 17.0
24/05:00am 12.7 9.2 12.2 97 0.3 SSW 22 32 12 17 1004.2 1004.2 15.6
24/04:30am 12.7 9.6 12.2 97 0.3 SSW 20 26 11 14 1004.0 1004.0 14.2
24/04:00am 12.9 9.5 12.4 97 0.3 S 22 28 12 15 1003.8 1003.8 13.2
24/03:30am 13.2 9.5 12.7 97 0.3 S 24 32 13 17 1003.7 1003.7 12.4
24/03:00am 13.5 11.3 13.2 98 0.2 S 17 24 9 13 1003.6 1003.6 11.8
24/02:30am 13.5 11.7 13.2 98 0.2 SSW 15 19 8 10 1003.7 1003.7 9.8
24/02:00am 13.7 11.9 13.4 98 0.2 SSW 15 19 8 10 1003.9 1003.9 8.8
24/01:30am 13.7 11.5 13.4 98 0.2 SSW 17 22 9 12 1004.0 1004.0 8.2
24/01:00am 13.8 12.1 13.5 98 0.2 S 15 20 8 11 1004.1 1004.1 7.4
24/12:30am 13.8 12.1 13.5 98 0.2 S 15 20 8 11 1004.3 1004.3 6.6
24/12:00am 13.9 11.4 13.6 98 0.2 S 19 22 10 12 1004.2 1004.2 5.4
 
Date/Time
EDT
Temp
°C
App
Temp
°C
Dew
Point
°C
Rel
Hum
%
Delta-T
°C
Wind Press
QNH
hPa
Press
MSL
hPa
Rain since
9am
mm
Dir  Spd
km/h
Gust
km/h
Spd
kts
Gust
kts
23/11:30pm 14.0 11.9 13.7 98 0.2 SSW 17 20 9 11 1004.4 1004.4 4.4
23/11:00pm 13.9 11.7 13.4 97 0.3 SSW 17 20 9 11 1004.6 1004.6 3.8
23/10:30pm 14.1 12.8 13.6 97 0.3 SSW 13 17 7 9 1004.9 1004.9 2.8
23/10:00pm 14.1 12.8 13.6 97 0.3 S 13 17 7 9 1005.0 1005.0 2.2
23/09:30pm 14.2 13.3 13.6 96 0.3 SSW 11 13 6 7 1005.0 1005.0 1.0
23/09:00pm 14.3 13.8 13.7 96 0.3 SSW 9 13 5 7 1005.1 1005.1 0.4
23/08:30pm 14.4 13.5 13.8 96 0.3 S 11 15 6 8 1004.9 1004.9 0.2
23/08:00pm 14.6 13.7 13.8 95 0.4 S 11 13 6 7 1004.8 1004.8 0.2
23/07:30pm 14.9 14.4 13.9 94 0.6 S 9 13 5 7 1004.8 1004.8 0.2
23/07:00pm 15.5 15.4 14.0 91 0.8 S 7 11 4 6 1004.8 1004.8 0.2
23/06:30pm 16.1 15.6 13.8 86 1.3 S 9 15 5 8 1004.7 1004.7 0.2
23/06:00pm 16.6 16.1 13.9 84 1.5 S 9 13 5 7 1004.8 1004.8 0.2
23/05:30pm 17.5 16.8 14.2 81 1.9 SSE 11 13 6 7 1004.7 1004.7 0.2
23/05:00pm 18.8 19.0 14.7 77 2.4 E 7 13 4 7 1004.5 1004.5 0.2
23/04:30pm 19.9 20.0 15.5 76 2.6 NNE 9 11 5 6 1004.4 1004.4 0.2
23/04:00pm 20.3 20.4 14.4 69 3.4 E 7 13 4 7 1004.7 1004.7 0.0
23/03:30pm 19.4 19.9 15.5 78 2.3 NNE 7 13 4 7 1005.3 1005.3 0.0
23/03:00pm 19.0 19.5 14.9 77 2.4 ESE 6 11 3 6 1006.1 1006.1 0.0
23/02:30pm 17.6 18.7 14.5 82 1.8 NNE 2 7 1 4 1007.1 1007.1 0.0
23/02:00pm 16.6 16.5 13.9 84 1.5 S 7 9 4 5 1007.4 1007.4 0.0
23/01:30pm 16.2 15.7 13.9 86 1.3 S 9 11 5 6 1007.7 1007.7 0.0
23/01:00pm 16.6 16.8 14.6 88 1.2 S 7 13 4 7 1007.9 1007.9 0.0
23/12:30pm 16.1 15.6 13.9 87 1.2 S 9 11 5 6 1008.1 1008.1 0.0
23/12:00pm 15.8 15.9 13.8 88 1.1 S 6 13 3 7 1008.4 1008.4 0.0

Other formats

Comma delimited format used in spreadsheet applications
http://www.bom.gov.au/fwo/IDV60801/IDV60801.94857.axf

JavaScript Object Notation format (JSON) in row-major order
http://www.bom.gov.au/fwo/IDV60801/IDV60801.94857.json

Data quality

Most of these data are generated automatically and are frequently updated. Quality checks on data are not normally performed. It is possible for incorrect values to appear. Refer to information at About Latest Weather Observations and please check the disclaimer before using these data.